Time;durP1;ratioP1;P1;durP2;ratioP2;P2;SDS_P1;SDS_P2;PMS_P1;PMS_P2;Temp;Humidity;BMP_temperature;BMP_pressure;BME280_temperature;BME280_humidity;BME280_pressure;Samples;Min_cycle;Max_cycle;Signal;HPM_P1;HPM_P2
2023/10/23 00:01:39;;;;;;;25.60;13.10;;;;;;;9.41;100.00;100013.70;130498;1307;22567;-85
2023/10/23 00:04:42;;;;;;;22.60;12.50;;;;;;;9.43;100.00;100011.42;130440;1305;23074;-88
2023/10/23 00:07:43;;;;;;;28.10;13.30;;;;;;;9.46;100.00;100013.55;130369;1301;22553;-86
2023/10/23 00:10:46;;;;;;;21.30;12.90;;;;;;;9.48;100.00;100011.76;130396;1307;22567;-87
2023/10/23 00:13:47;;;;;;;24.30;11.90;;;;;;;9.48;100.00;100014.00;130237;1302;22740;-87
2023/10/23 00:17:00;;;;;;;16.30;11.70;;;;;;;9.49;100.00;100019.45;130369;1308;22657;-87
2023/10/23 00:20:08;;;;;;;19.80;11.50;;;;;;;9.49;100.00;100026.30;130300;1301;22658;-88
2023/10/23 00:23:14;;;;;;;28.50;12.30;;;;;;;9.48;100.00;100023.90;130389;1301;22807;-88
2023/10/23 00:26:18;;;;;;;20.00;11.70;;;;;;;9.49;100.00;100031.48;130317;1302;22594;-88
2023/10/23 00:29:24;;;;;;;19.50;11.60;;;;;;;9.43;100.00;100025.89;130301;1307;24504;-87
2023/10/23 00:32:28;;;;;;;22.00;10.90;;;;;;;9.46;100.00;100030.17;130454;1305;23307;-86
2023/10/23 00:35:28;;;;;;;26.80;12.30;;;;;;;9.44;100.00;100022.75;130365;1308;22911;-89
2023/10/23 00:38:29;;;;;;;23.70;11.60;;;;;;;9.44;100.00;100022.25;130431;1301;22684;-87
2023/10/23 00:41:32;;;;;;;;;;;;;;;9.43;100.00;100019.33;130525;1302;23063;-88
2023/10/23 00:44:39;;;;;;;20.80;11.60;;;;;;;9.39;100.00;100022.04;130464;1308;22610;-86
2023/10/23 00:47:43;;;;;;;23.20;12.40;;;;;;;9.39;100.00;100020.48;130483;1302;22600;-86
2023/10/23 00:50:55;;;;;;;22.50;12.90;;;;;;;9.38;100.00;100018.92;130509;1304;22706;-87
2023/10/23 00:53:59;;;;;;;19.20;11.90;;;;;;;9.38;100.00;100017.76;130378;1301;25290;-86
2023/10/23 00:57:05;;;;;;;21.40;12.00;;;;;;;9.35;100.00;100015.38;130538;1301;23396;-87
2023/10/23 01:00:08;;;;;;;;;;;;;;;9.30;100.00;100006.61;130423;1307;22733;-87
2023/10/23 01:03:15;;;;;;;19.70;11.40;;;;;;;9.27;100.00;100008.33;130539;1303;22637;-87
2023/10/23 01:06:18;;;;;;;17.20;10.90;;;;;;;9.24;100.00;100004.02;130472;1306;22589;-86
2023/10/23 01:09:22;;;;;;;19.70;11.30;;;;;;;9.21;100.00;100009.27;130370;1301;23583;-88
2023/10/23 01:12:41;;;;;;;22.20;11.60;;;;;;;9.18;100.00;100007.62;130263;1310;22601;-86
2023/10/23 01:15:45;;;;;;;28.40;13.90;;;;;;;9.16;100.00;100002.58;130161;1304;22730;-88
2023/10/23 01:19:21;;;;;;;26.20;17.10;;;;;;;9.15;100.00;100006.50;130175;1309;24293;-87
2023/10/23 01:22:27;;;;;;;22.20;14.10;;;;;;;9.13;100.00;100004.50;130287;1307;22624;-87
2023/10/23 01:25:38;;;;;;;26.50;13.80;;;;;;;9.09;100.00;100001.73;130155;1311;24229;-87
2023/10/23 01:28:41;;;;;;;18.90;12.10;;;;;;;9.07;100.00;99999.46;130270;1310;22566;-87
2023/10/23 01:31:45;;;;;;;18.60;11.00;;;;;;;9.03;100.00;99993.23;130136;1297;22562;-87
2023/10/23 01:34:48;;;;;;;21.90;12.30;;;;;;;9.01;100.00;99994.48;130270;1311;22598;-87
2023/10/23 01:37:55;;;;;;;23.80;11.90;;;;;;;9.00;100.00;99994.90;130195;1311;24605;-86
2023/10/23 01:40:59;;;;;;;20.30;11.50;;;;;;;9.00;100.00;99991.16;130130;1310;22761;-87
2023/10/23 01:44:21;;;;;;;25.90;11.70;;;;;;;9.03;100.00;99989.91;130283;1301;22715;-88
2023/10/23 01:47:28;;;;;;;20.00;12.10;;;;;;;9.02;100.00;99992.23;130275;1307;22587;-87
2023/10/23 01:50:36;;;;;;;16.60;10.30;;;;;;;9.00;100.00;99992.40;130050;1307;25470;-90
2023/10/23 01:53:44;;;;;;;19.50;12.10;;;;;;;9.00;100.00;99995.98;130387;1301;22588;-87
2023/10/23 01:56:47;;;;;;;22.70;12.60;;;;;;;8.95;100.00;99993.05;130299;1302;22806;-86
2023/10/23 02:00:04;;;;;;;19.00;12.10;;;;;;;8.90;100.00;99989.95;130348;1297;23943;-87
2023/10/23 02:03:12;;;;;;;20.70;12.60;;;;;;;8.93;100.00;99990.55;130420;1308;22631;-86
2023/10/23 02:06:22;;;;;;;23.20;11.80;;;;;;;8.92;100.00;99988.29;130294;1306;22571;-87
2023/10/23 02:09:29;;;;;;;18.30;10.50;;;;;;;8.97;100.00;99997.17;130426;1303;22598;-87
2023/10/23 02:12:33;;;;;;;23.00;11.80;;;;;;;8.98;100.00;99995.81;130156;1304;22684;-86
2023/10/23 02:15:44;;;;;;;24.40;11.60;;;;;;;8.98;100.00;99993.53;130261;1307;22674;-88
2023/10/23 02:18:48;;;;;;;18.10;10.90;;;;;;;9.01;100.00;99995.50;130285;1308;24183;-88
2023/10/23 02:21:59;;;;;;;19.20;11.70;;;;;;;9.04;100.00;100002.76;130417;1304;22574;-88
2023/10/23 02:25:03;;;;;;;25.50;12.00;;;;;;;9.05;100.00;100005.67;130363;1306;22557;-87
2023/10/23 02:28:06;;;;;;;18.30;11.90;;;;;;;9.04;100.00;100001.56;130421;1308;25396;-86
2023/10/23 02:31:18;;;;;;;22.70;12.10;;;;;;;9.00;100.00;100000.20;130352;1299;22583;-88
2023/10/23 02:34:19;;;;;;;20.40;10.00;;;;;;;8.98;100.00;100001.98;130469;1307;22630;-87
2023/10/23 02:37:22;;;;;;;19.60;11.10;;;;;;;8.97;100.00;100001.91;130488;1308;23401;-88
2023/10/23 02:40:28;;;;;;;19.30;11.20;;;;;;;8.98;100.00;100001.52;130592;1307;23791;-87
2023/10/23 02:43:30;;;;;;;18.70;11.80;;;;;;;9.02;100.00;100009.73;130496;1308;24298;-87
2023/10/23 02:46:38;;;;;;;19.80;10.90;;;;;;;9.02;100.00;100016.81;130541;1301;22610;-87
2023/10/23 02:49:52;;;;;;;18.60;11.10;;;;;;;9.03;100.00;100025.15;130588;1307;24243;-87
2023/10/23 02:52:55;;;;;;;22.80;11.80;;;;;;;9.05;100.00;100026.71;130581;1304;22589;-88
2023/10/23 02:56:13;;;;;;;;;;;;;;;9.05;100.00;100030.74;130547;1302;22537;-87
2023/10/23 02:59:14;;;;;;;23.60;11.60;;;;;;;9.06;100.00;100035.61;130612;1306;22660;-87
2023/10/23 03:02:23;;;;;;;24.00;11.80;;;;;;;9.05;100.00;100030.09;130398;1301;22546;-87
2023/10/23 03:05:25;;;;;;;20.80;11.70;;;;;;;9.07;100.00;100038.70;130424;1301;22560;-86
2023/10/23 03:08:54;;;;;;;17.90;11.10;;;;;;;9.10;100.00;100043.98;130512;1307;22662;-87
2023/10/23 03:11:55;;;;;;;19.80;11.50;;;;;;;9.10;100.00;100050.19;130442;1301;24377;-87
2023/10/23 03:15:01;;;;;;;19.30;10.90;;;;;;;9.08;100.00;100051.94;130492;1308;23260;-87
2023/10/23 03:18:08;;;;;;;20.60;10.70;;;;;;;9.09;100.00;100053.30;130348;1306;22609;-87
2023/10/23 03:21:15;;;;;;;24.00;11.00;;;;;;;9.11;100.00;100053.37;130386;1306;23728;-87
2023/10/23 03:24:35;;;;;;;19.10;10.90;;;;;;;9.10;100.00;100051.25;130426;1301;22572;-88
2023/10/23 03:27:57;;;;;;;21.10;10.70;;;;;;;9.13;100.00;100056.23;130571;1301;22643;-88
2023/10/23 03:31:03;;;;;;;22.30;10.40;;;;;;;9.15;100.00;100064.41;130410;1308;23195;-88
2023/10/23 03:34:09;;;;;;;16.70;10.00;;;;;;;9.14;100.00;100063.68;130395;1308;22612;-86
2023/10/23 03:37:15;;;;;;;18.60;10.00;;;;;;;9.16;100.00;100071.01;130368;1307;22731;-87
2023/10/23 03:40:27;;;;;;;17.40;10.50;;;;;;;9.17;100.00;100073.12;130469;1302;22627;-86
2023/10/23 03:43:32;;;;;;;18.60;10.30;;;;;;;9.17;100.00;100070.95;130584;1305;24403;-88
2023/10/23 03:46:36;;;;;;;22.90;11.30;;;;;;;9.18;100.00;100073.89;130521;1302;22589;-86
2023/10/23 03:49:52;;;;;;;19.30;10.20;;;;;;;9.18;100.00;100075.21;130310;1307;22678;-87
2023/10/23 03:53:03;;;;;;;21.40;10.80;;;;;;;9.19;100.00;100080.61;130287;1304;22600;-87
2023/10/23 03:56:19;;;;;;;19.50;10.80;;;;;;;9.21;100.00;100081.80;130397;1304;22991;-87
2023/10/23 03:59:25;;;;;;;25.00;10.80;;;;;;;9.21;100.00;100073.80;130240;1301;22603;-87
2023/10/23 04:02:34;;;;;;;21.10;10.50;;;;;;;9.24;100.00;100071.63;130354;1307;22621;-86
2023/10/23 04:05:47;;;;;;;16.90;10.90;;;;;;;9.25;100.00;100072.73;130350;1308;25300;-87
2023/10/23 04:08:53;;;;;;;18.70;10.70;;;;;;;9.28;100.00;100070.89;130473;1307;22591;-86
2023/10/23 04:12:06;;;;;;;17.80;10.90;;;;;;;9.28;100.00;100066.48;130460;1307;22609;-87
2023/10/23 04:15:14;;;;;;;15.20;9.60;;;;;;;9.28;100.00;100063.29;130390;1301;24241;-86
2023/10/23 04:18:28;;;;;;;19.60;10.60;;;;;;;9.28;100.00;100067.58;130316;1308;22663;-87
2023/10/23 04:21:36;;;;;;;17.20;9.90;;;;;;;9.27;100.00;100066.75;130226;1308;25379;-89
2023/10/23 04:24:39;;;;;;;18.80;10.50;;;;;;;9.26;100.00;100073.95;130189;1308;22736;-87
2023/10/23 04:27:40;;;;;;;18.00;10.00;;;;;;;9.26;100.00;100073.55;130394;1304;22563;-89
2023/10/23 04:30:43;;;;;;;21.20;9.80;;;;;;;9.25;100.00;100079.48;130471;1304;24808;-88
2023/10/23 04:33:48;;;;;;;14.00;9.10;;;;;;;9.23;100.00;100081.35;130602;1302;22580;-87
2023/10/23 04:36:49;;;;;;;18.60;10.20;;;;;;;9.24;100.00;100086.89;130923;1302;22604;-87
2023/10/23 04:39:49;;;;;;;18.10;9.60;;;;;;;9.21;100.00;100082.53;130470;1304;24828;-83
2023/10/23 04:42:50;;;;;;;14.80;9.00;;;;;;;9.21;100.00;100084.20;130918;1295;25287;-82
2023/10/23 04:45:52;;;;;;;19.10;10.20;;;;;;;9.15;100.00;100080.19;131056;1301;23477;-84
2023/10/23 04:48:53;;;;;;;19.60;9.90;;;;;;;9.12;100.00;100086.63;131011;1304;22570;-86
2023/10/23 04:52:04;;;;;;;18.80;9.90;;;;;;;9.09;100.00;100082.77;130663;1302;22537;-86
2023/10/23 04:55:09;;;;;;;15.00;9.60;;;;;;;9.11;100.00;100091.55;130724;1304;24257;-85
2023/10/23 04:58:13;;;;;;;17.40;10.60;;;;;;;9.12;100.00;100090.89;130810;1304;22666;-84
2023/10/23 05:01:17;;;;;;;21.10;11.00;;;;;;;9.10;100.00;100085.66;130481;1308;25609;-87
2023/10/23 05:04:19;;;;;;;22.20;11.90;;;;;;;9.06;100.00;100085.21;130963;1301;25329;-85
2023/10/23 05:07:25;;;;;;;26.90;11.90;;;;;;;9.06;100.00;100083.40;130752;1307;23225;-86
2023/10/23 05:10:26;;;;;;;;;;;;;;;9.04;100.00;100086.59;130705;1302;22776;-86
2023/10/23 05:13:26;;;;;;;25.20;11.50;;;;;;;9.07;100.00;100090.25;130711;1296;22593;-86
2023/10/23 05:16:27;;;;;;;21.20;11.20;;;;;;;9.09;100.00;100094.39;130808;1308;22612;-86
2023/10/23 05:19:30;;;;;;;18.60;11.20;;;;;;;9.10;100.00;100093.73;130632;1308;24314;-85
2023/10/23 05:22:33;;;;;;;23.80;10.80;;;;;;;9.12;100.00;100100.95;130686;1305;23123;-86
2023/10/23 05:25:35;;;;;;;19.10;11.50;;;;;;;9.14;100.00;100109.08;130443;1308;22597;-87
2023/10/23 05:28:40;;;;;;;20.70;12.00;;;;;;;9.12;100.00;100115.02;130614;1302;25339;-87
2023/10/23 05:31:41;;;;;;;15.10;10.50;;;;;;;9.17;100.00;100127.23;130482;1309;22566;-86
2023/10/23 05:34:44;;;;;;;20.30;11.40;;;;;;;9.18;100.00;100130.52;130735;1307;24632;-86
2023/10/23 05:37:45;;;;;;;18.10;10.30;;;;;;;9.19;100.00;100136.56;130730;1302;23419;-85
2023/10/23 05:40:46;;;;;;;16.00;10.70;;;;;;;9.20;100.00;100140.57;130687;1285;22695;-85
2023/10/23 05:43:46;;;;;;;28.20;14.10;;;;;;;9.20;100.00;100142.00;130413;1305;220249;-86
2023/10/23 05:46:47;;;;;;;36.80;21.80;;;;;;;9.24;100.00;100140.50;130636;1302;23394;-86
2023/10/23 05:49:48;;;;;;;32.80;19.50;;;;;;;9.25;100.00;100141.27;130587;1302;26711;-84
2023/10/23 05:52:48;;;;;;;35.20;18.00;;;;;;;9.26;100.00;100145.55;130389;1302;23445;-85
2023/10/23 05:55:49;;;;;;;;;;;;;;;9.42;100.00;100146.19;130648;1301;22544;-87
2023/10/23 05:58:50;;;;;;;34.00;17.90;;;;;;;9.65;100.00;100148.40;130605;1302;23120;-87
2023/10/23 06:01:52;;;;;;;30.70;17.90;;;;;;;9.82;100.00;100147.17;130631;1301;22673;-85
2023/10/23 06:04:52;;;;;;;28.80;16.80;;;;;;;9.92;100.00;100145.23;131050;1286;22661;-84
2023/10/23 06:07:53;;;;;;;;;;;;;;;9.99;100.00;100155.83;131097;1301;22534;-83
2023/10/23 06:10:54;;;;;;;26.60;15.00;;;;;;;10.05;100.00;100160.08;130654;1302;22683;-85
2023/10/23 06:13:54;;;;;;;;;;;;;;;10.11;100.00;100159.33;130694;1304;22636;-86
2023/10/23 06:16:55;;;;;;;20.90;11.60;;;;;;;10.06;100.00;100164.27;130678;1302;22622;-85
2023/10/23 06:19:55;;;;;;;18.90;10.80;;;;;;;9.93;100.00;100163.14;130530;1301;22626;-84
2023/10/23 06:22:56;;;;;;;16.50;9.90;;;;;;;9.86;100.00;100169.17;130579;1302;22568;-83
2023/10/23 06:25:56;;;;;;;14.50;9.30;;;;;;;9.83;100.00;100176.39;130676;1301;22631;-83
2023/10/23 06:28:57;;;;;;;18.30;8.60;;;;;;;9.81;100.00;100176.02;130991;1302;22744;-83
2023/10/23 06:31:58;;;;;;;;;;;;;;;9.81;100.00;100174.13;130968;1301;23425;-84
2023/10/23 06:34:58;;;;;;;22.60;11.10;;;;;;;9.80;100.00;100177.96;130626;1304;22568;-83
2023/10/23 06:37:59;;;;;;;19.30;10.30;;;;;;;9.79;100.00;100177.16;130937;1301;22578;-83
2023/10/23 06:41:06;;;;;;;15.00;9.10;;;;;;;9.80;100.00;100179.77;130474;1302;23456;-82
2023/10/23 06:44:07;;;;;;;16.30;8.50;;;;;;;9.82;100.00;100183.23;130895;1301;22680;-83
2023/10/23 06:47:07;;;;;;;14.90;8.50;;;;;;;9.85;100.00;100183.98;130952;1301;22807;-83
2023/10/23 06:50:10;;;;;;;24.30;12.20;;;;;;;9.87;100.00;100180.94;130954;1301;23911;-83
2023/10/23 06:53:11;;;;;;;21.60;10.70;;;;;;;9.91;100.00;100179.09;130787;1301;23459;-83
2023/10/23 06:56:12;;;;;;;29.30;13.20;;;;;;;9.97;100.00;100181.36;130985;1301;22728;-85
2023/10/23 06:59:13;;;;;;;32.10;13.00;;;;;;;10.03;100.00;100178.86;130799;1301;22590;-83
2023/10/23 07:02:13;;;;;;;15.40;8.30;;;;;;;10.08;100.00;100179.54;131040;1302;22730;-84
2023/10/23 07:05:14;;;;;;;24.30;10.30;;;;;;;10.14;100.00;100172.98;130753;1301;25402;-83
2023/10/23 07:08:14;;;;;;;15.60;7.80;;;;;;;10.21;100.00;100184.73;130764;1301;25309;-83
2023/10/23 07:11:17;;;;;;;23.30;8.30;;;;;;;10.28;100.00;100196.08;130664;1301;22703;-83
2023/10/23 07:14:18;;;;;;;14.20;8.40;;;;;;;10.37;100.00;100198.03;130740;1304;22562;-84
2023/10/23 07:17:21;;;;;;;18.30;8.60;;;;;;;10.43;100.00;100198.40;130988;1301;25310;-83
2023/10/23 07:20:22;;;;;;;22.80;8.80;;;;;;;10.48;100.00;100200.83;130870;1301;24257;-85
2023/10/23 07:23:23;;;;;;;20.80;9.40;;;;;;;10.55;100.00;100197.80;130860;1301;22575;-85
2023/10/23 07:26:23;;;;;;;17.40;8.60;;;;;;;10.59;100.00;100194.94;130980;1286;23345;-85
2023/10/23 07:29:24;;;;;;;13.40;8.40;;;;;;;10.63;100.00;100199.64;130743;1301;22725;-84
2023/10/23 07:32:24;;;;;;;15.80;8.30;;;;;;;10.67;100.00;100203.59;130964;1301;22562;-83
2023/10/23 07:35:25;;;;;;;16.70;8.00;;;;;;;10.74;100.00;100203.55;130986;1301;27048;-83
2023/10/23 07:38:26;;;;;;;;;;;;;;;10.83;100.00;100209.83;130720;1301;22581;-83
2023/10/23 07:41:26;;;;;;;16.40;8.70;;;;;;;10.91;100.00;100208.41;130993;1299;25288;-84
2023/10/23 07:44:27;;;;;;;15.30;8.30;;;;;;;10.95;100.00;100209.44;130676;1301;24251;-84
2023/10/23 07:47:28;;;;;;;;;;;;;;;10.96;100.00;100207.11;130690;1302;22591;-83
2023/10/23 07:50:31;;;;;;;14.20;7.10;;;;;;;10.98;100.00;100207.86;130739;1301;22692;-84
2023/10/23 07:53:33;;;;;;;14.10;6.90;;;;;;;10.98;100.00;100210.66;131105;1301;22632;-83
2023/10/23 07:56:33;;;;;;;18.80;7.50;;;;;;;10.97;100.00;100212.35;130769;1304;22574;-84
2023/10/23 07:59:34;;;;;;;21.20;7.80;;;;;;;10.97;100.00;100214.64;130964;1304;24412;-83
2023/10/23 08:02:34;;;;;;;13.80;7.60;;;;;;;10.97;100.00;100211.81;130666;1304;22695;-84
2023/10/23 08:05:35;;;;;;;12.60;7.20;;;;;;;10.95;100.00;100205.39;130779;1302;23187;-83
2023/10/23 08:08:38;;;;;;;16.30;7.10;;;;;;;10.84;100.00;100203.48;130632;1304;25449;-84
2023/10/23 08:11:39;;;;;;;15.40;7.80;;;;;;;10.84;100.00;100212.09;130859;1301;23328;-84
2023/10/23 08:14:39;;;;;;;13.60;7.40;;;;;;;10.89;100.00;100218.39;130959;1301;22593;-83
2023/10/23 08:17:40;;;;;;;15.70;7.50;;;;;;;11.00;100.00;100214.52;130823;1301;22663;-84
2023/10/23 08:20:41;;;;;;;16.60;7.20;;;;;;;11.12;100.00;100214.23;130684;1307;22792;-83
2023/10/23 08:23:46;;;;;;;19.50;9.00;;;;;;;11.24;100.00;100206.27;130837;1307;26129;-83
2023/10/23 08:26:47;;;;;;;19.80;7.40;;;;;;;11.35;100.00;100206.05;130995;1301;24247;-83
2023/10/23 08:29:48;;;;;;;18.40;7.40;;;;;;;11.44;100.00;100207.96;130732;1301;23307;-83
2023/10/23 08:32:49;;;;;;;17.30;7.70;;;;;;;11.56;100.00;100200.52;130772;1304;22700;-84
2023/10/23 08:35:49;;;;;;;15.60;7.50;;;;;;;11.68;100.00;100199.58;131079;1301;25428;-84
2023/10/23 08:38:50;;;;;;;20.50;7.80;;;;;;;11.83;100.00;100197.52;130943;1307;22677;-84
2023/10/23 08:41:51;;;;;;;14.50;7.10;;;;;;;11.98;100.00;100198.03;130610;1301;22549;-84
2023/10/23 08:44:51;;;;;;;;;;;;;;;12.13;100.00;100197.41;130834;1301;22565;-84
2023/10/23 08:47:52;;;;;;;10.60;6.00;;;;;;;12.30;100.00;100192.55;130797;1304;25408;-84
2023/10/23 08:50:56;;;;;;;15.60;7.90;;;;;;;12.66;100.00;100189.12;130947;1302;24307;-84
2023/10/23 08:54:20;;;;;;;15.40;6.00;;;;;;;12.99;100.00;100187.23;130746;1301;22609;-84
2023/10/23 08:57:21;;;;;;;11.70;5.90;;;;;;;13.30;100.00;100191.71;130444;1301;22563;-84
2023/10/23 09:00:24;;;;;;;12.90;5.50;;;;;;;13.45;100.00;100197.33;130605;1302;24310;-84
2023/10/23 09:03:26;;;;;;;17.40;6.80;;;;;;;13.56;100.00;100198.11;130618;1304;23344;-85
2023/10/23 09:06:27;;;;;;;15.10;6.70;;;;;;;13.66;100.00;100196.48;130661;1301;22596;-84
2023/10/23 09:09:28;;;;;;;10.30;5.40;;;;;;;13.85;100.00;100195.28;130711;1304;24072;-84
2023/10/23 09:13:03;;;;;;;14.00;5.00;;;;;;;14.08;100.00;100200.08;130949;1301;22604;-84
2023/10/23 09:16:22;;;;;;;12.50;4.90;;;;;;;14.30;100.00;100193.14;132001;1301;22579;-85
2023/10/23 09:19:39;;;;;;;9.00;5.00;;;;;;;14.54;100.00;100194.15;130619;1301;22811;-84
2023/10/23 09:22:52;;;;;;;13.10;4.80;;;;;;;14.72;100.00;100192.96;130663;1307;22610;-85
2023/10/23 09:25:58;;;;;;;13.70;5.00;;;;;;;14.93;100.00;100197.13;130794;1304;22558;-85
2023/10/23 09:28:58;;;;;;;11.70;5.40;;;;;;;15.20;100.00;100197.91;130881;1301;22560;-84
2023/10/23 09:31:59;;;;;;;11.20;4.50;;;;;;;15.46;100.00;100189.16;130751;1301;27993;-86
2023/10/23 09:35:00;;;;;;;13.10;4.50;;;;;;;15.56;100.00;100186.41;130720;1301;22598;-84
2023/10/23 09:38:15;;;;;;;12.90;4.80;;;;;;;15.74;99.81;100198.18;130620;1301;22993;-84
2023/10/23 09:41:18;;;;;;;10.20;4.90;;;;;;;15.87;99.27;100197.12;130639;1303;23183;-85
2023/10/23 09:44:19;;;;;;;10.80;4.90;;;;;;;16.06;98.98;100200.98;130767;1301;25552;-84
2023/10/23 09:47:24;;;;;;;12.30;5.00;;;;;;;16.21;98.17;100197.63;130890;1302;24237;-87
2023/10/23 09:50:27;;;;;;;9.40;4.70;;;;;;;16.36;98.04;100195.80;131110;1301;22597;-84
2023/10/23 09:53:28;;;;;;;17.00;5.50;;;;;;;16.58;97.49;100192.22;130546;1301;22713;-87
2023/10/23 09:56:31;;;;;;;10.60;4.70;;;;;;;16.81;96.84;100187.39;130828;1285;24275;-85
2023/10/23 09:59:42;;;;;;;10.70;4.20;;;;;;;17.17;95.99;100184.54;130600;1301;26749;-85
2023/10/23 10:02:54;;;;;;;17.00;4.10;;;;;;;17.63;95.90;100188.04;130599;1307;22710;-87
2023/10/23 10:06:10;;;;;;;11.80;4.50;;;;;;;17.97;93.86;100185.02;130764;1304;25295;-87
2023/10/23 10:09:12;;;;;;;11.90;4.40;;;;;;;18.27;93.14;100184.84;130600;1301;25387;-85
2023/10/23 10:12:13;;;;;;;12.30;3.90;;;;;;;18.47;91.32;100180.14;130687;1302;22572;-86
2023/10/23 10:15:15;;;;;;;8.00;3.40;;;;;;;18.55;88.42;100176.98;130733;1301;24284;-85
2023/10/23 10:18:16;;;;;;;12.70;3.30;;;;;;;18.53;87.81;100177.90;130875;1302;25338;-87
2023/10/23 10:21:22;;;;;;;12.00;3.20;;;;;;;18.65;87.96;100175.96;130535;1301;25348;-86
2023/10/23 10:24:24;;;;;;;8.80;2.70;;;;;;;18.78;86.44;100173.09;130716;1301;22637;-85
2023/10/23 10:27:25;;;;;;;6.90;3.10;;;;;;;18.82;84.87;100170.73;130918;1301;22570;-85
2023/10/23 10:30:46;;;;;;;8.40;2.90;;;;;;;18.87;83.80;100163.90;130703;1307;22603;-86
2023/10/23 10:33:47;;;;;;;10.40;2.50;;;;;;;18.93;83.81;100170.34;130740;1301;22567;-87
2023/10/23 10:36:48;;;;;;;7.10;2.60;;;;;;;19.05;82.72;100169.48;131007;1301;24280;-86
2023/10/23 10:39:50;;;;;;;6.90;2.90;;;;;;;18.98;81.43;100166.45;130805;1301;22559;-84
2023/10/23 10:42:51;;;;;;;9.50;2.50;;;;;;;19.02;81.42;100164.77;130828;1301;22593;-86
2023/10/23 10:45:53;;;;;;;8.10;2.60;;;;;;;19.11;80.68;100159.71;130801;1301;22555;-84
2023/10/23 10:48:56;;;;;;;9.70;2.90;;;;;;;19.00;78.85;100158.50;130829;1301;22718;-86
2023/10/23 10:51:57;;;;;;;8.90;3.40;;;;;;;18.72;78.27;100157.67;130659;1304;22609;-85
2023/10/23 10:55:11;;;;;;;7.80;3.00;;;;;;;18.35;78.13;100158.41;130612;1301;22712;-85
2023/10/23 10:58:12;;;;;;;14.40;3.40;;;;;;;18.04;77.98;100155.56;130757;1304;22617;-85
2023/10/23 11:01:21;;;;;;;7.20;2.80;;;;;;;17.83;77.81;100150.00;130779;1304;22601;-87
2023/10/23 11:04:21;;;;;;;12.50;3.50;;;;;;;17.72;78.23;100149.94;130984;1302;25985;-86
2023/10/23 11:07:26;;;;;;;13.00;3.70;;;;;;;17.69;78.20;100149.20;130706;1304;25326;-86
2023/10/23 11:10:28;;;;;;;9.40;3.00;;;;;;;17.74;78.25;100146.47;131013;1304;23300;-85
2023/10/23 11:13:28;;;;;;;12.80;3.60;;;;;;;17.82;78.02;100148.08;130939;1301;22591;-87
2023/10/23 11:16:30;;;;;;;11.10;4.20;;;;;;;17.92;77.30;100146.49;131068;1302;22577;-87
2023/10/23 11:19:31;;;;;;;10.70;3.40;;;;;;;18.09;77.56;100149.88;130654;1304;22567;-84
2023/10/23 11:22:31;;;;;;;9.20;3.70;;;;;;;18.31;77.30;100146.52;130628;1301;22636;-86
2023/10/23 11:25:32;;;;;;;10.20;2.70;;;;;;;18.47;76.34;100147.73;130645;1301;22565;-85
2023/10/23 11:28:33;;;;;;;11.30;3.40;;;;;;;18.65;76.62;100152.23;130767;1304;23423;-86
2023/10/23 11:31:34;;;;;;;12.70;3.00;;;;;;;18.92;75.94;100150.04;130612;1304;22656;-85
2023/10/23 11:34:38;;;;;;;9.30;3.30;;;;;;;18.98;75.21;100146.03;130374;1305;24327;-85
2023/10/23 11:37:40;;;;;;;11.30;3.50;;;;;;;18.93;74.46;100146.90;131188;1297;22595;-85
2023/10/23 11:40:42;;;;;;;6.00;2.90;;;;;;;19.05;74.16;100149.75;131289;1298;22599;-86
2023/10/23 11:43:42;;;;;;;8.60;3.30;;;;;;;19.14;73.12;100146.24;131256;1296;24319;-87
2023/10/23 11:46:47;;;;;;;9.30;3.30;;;;;;;19.01;72.57;100148.77;131474;1298;22696;-85
2023/10/23 11:49:49;;;;;;;10.20;3.20;;;;;;;19.12;73.01;100149.24;131016;1302;23951;-86
2023/10/23 11:52:49;;;;;;;7.70;3.20;;;;;;;19.21;72.32;100148.20;130894;1299;23294;-85
2023/10/23 11:55:51;;;;;;;8.20;3.80;;;;;;;19.25;71.53;100148.12;131326;1297;25403;-87
2023/10/23 11:58:51;;;;;;;10.80;3.60;;;;;;;19.16;71.18;100144.23;131397;1297;23887;-86
2023/10/23 12:01:56;;;;;;;15.40;4.20;;;;;;;19.07;71.14;100147.60;131377;1300;23164;-86
2023/10/23 12:04:56;;;;;;;14.20;5.40;;;;;;;18.74;69.82;100147.04;131324;1300;26531;-86
2023/10/23 12:07:58;;;;;;;;;;;;;;;18.37;70.58;100146.57;131295;1299;22530;-85
2023/10/23 12:10:58;;;;;;;10.60;4.00;;;;;;;18.27;71.21;100139.98;131385;1297;22568;-87
2023/10/23 12:14:01;;;;;;;11.20;4.50;;;;;;;18.19;71.28;100141.77;131716;1297;22601;-86
2023/10/23 12:17:03;;;;;;;11.70;4.20;;;;;;;18.21;71.35;100136.38;131418;1301;25447;-85
2023/10/23 12:20:07;;;;;;;11.80;4.50;;;;;;;18.00;70.93;100136.09;131382;1300;22602;-85
2023/10/23 12:23:08;;;;;;;9.90;3.50;;;;;;;17.70;70.96;100136.24;131851;1298;22607;-85
2023/10/23 12:26:09;;;;;;;10.70;4.10;;;;;;;17.44;70.79;100140.75;131512;1297;23404;-84
2023/10/23 12:29:12;;;;;;;;;;;;;;;17.22;71.45;100133.71;131505;1298;25396;-86
2023/10/23 12:32:14;;;;;;;13.70;3.80;;;;;;;17.17;71.90;100132.74;131361;1297;22556;-85
2023/10/23 12:35:14;;;;;;;11.20;3.50;;;;;;;17.12;72.01;100131.21;131412;1297;22583;-85
2023/10/23 12:38:15;;;;;;;;;;;;;;;16.97;72.19;100134.13;131400;1297;22590;-86
2023/10/23 12:41:19;;;;;;;9.40;3.40;;;;;;;16.79;72.69;100135.27;131723;1302;22663;-84
2023/10/23 12:44:20;;;;;;;9.90;3.90;;;;;;;16.65;73.54;100125.34;131423;1297;23345;-86
2023/10/23 12:47:22;;;;;;;10.00;3.80;;;;;;;16.54;73.61;100120.39;131377;1301;24378;-86
2023/10/23 12:50:23;;;;;;;7.60;3.30;;;;;;;16.50;73.51;100118.65;131442;1296;25389;-84
2023/10/23 12:53:24;;;;;;;;;;;;;;;16.32;72.98;100113.98;131580;1297;22589;-85
2023/10/23 12:56:25;;;;;;;6.40;2.80;;;;;;;16.23;73.32;100108.11;131476;1297;22559;-84
2023/10/23 12:59:26;;;;;;;13.90;3.70;;;;;;;16.32;73.75;100106.12;131441;1297;22585;-85
2023/10/23 13:02:26;;;;;;;15.00;4.00;;;;;;;16.36;73.80;100103.48;131362;1298;23077;-84
2023/10/23 13:05:28;;;;;;;;;;;;;;;16.42;73.84;100106.00;131711;1298;22540;-84
2023/10/23 13:08:28;;;;;;;9.60;3.20;;;;;;;16.50;73.70;100105.71;131487;1297;22564;-85
2023/10/23 13:11:30;;;;;;;13.00;3.20;;;;;;;16.59;73.50;100108.85;131294;1297;22580;-83
2023/10/23 13:14:31;;;;;;;9.60;2.80;;;;;;;16.65;73.32;100103.94;131393;1298;25369;-87
2023/10/23 13:17:31;;;;;;;8.10;3.30;;;;;;;16.58;73.01;100100.43;131332;1292;25439;-85
2023/10/23 13:20:32;;;;;;;7.20;2.70;;;;;;;16.50;73.36;100104.69;131230;1298;24279;-84
2023/10/23 13:23:33;;;;;;;9.50;3.20;;;;;;;16.41;73.27;100103.41;131379;1298;22561;-85
2023/10/23 13:26:33;;;;;;;;;;;;;;;16.43;73.73;100101.10;131400;1298;23372;-84
2023/10/23 13:29:34;;;;;;;11.70;3.80;;;;;;;16.49;73.39;100092.53;131400;1298;22661;-85
2023/10/23 13:32:34;;;;;;;9.60;2.90;;;;;;;16.53;73.08;100096.09;131193;1300;22599;-87
2023/10/23 13:35:36;;;;;;;8.00;3.10;;;;;;;16.56;72.93;100092.29;131110;1298;22706;-84
2023/10/23 13:38:37;;;;;;;10.40;3.00;;;;;;;16.53;72.65;100097.45;131345;1298;25352;-84
2023/10/23 13:41:38;;;;;;;9.40;3.00;;;;;;;16.57;72.69;100094.56;131400;1296;22635;-85
2023/10/23 13:44:39;;;;;;;10.00;3.00;;;;;;;16.55;71.93;100095.87;131072;1291;22552;-84
2023/10/23 13:47:39;;;;;;;6.70;2.80;;;;;;;16.40;71.81;100100.02;130938;1301;24426;-85
2023/10/23 13:50:41;;;;;;;;;;;;;;;16.37;72.23;100096.77;131311;1298;22561;-87
2023/10/23 13:53:42;;;;;;;10.60;4.40;;;;;;;16.34;72.26;100094.34;131396;1303;25291;-83
2023/10/23 13:56:45;;;;;;;11.30;3.70;;;;;;;16.34;72.33;100091.37;130867;1301;22567;-85